createdAt,value
2023-01-07T00:01:38.385Z,4.10
2023-01-07T00:04:07.032Z,3.40
2023-01-07T00:06:35.784Z,3.90
2023-01-07T00:09:03.053Z,3.20
2023-01-07T00:11:31.291Z,3.90
2023-01-07T00:13:58.905Z,4.70
2023-01-07T00:16:28.016Z,3.30
2023-01-07T00:18:55.639Z,4.30
2023-01-07T00:21:23.325Z,4.00
2023-01-07T00:23:50.541Z,4.60
2023-01-07T00:26:18.851Z,4.20
2023-01-07T00:28:46.659Z,3.40
2023-01-07T00:31:20.273Z,3.20
2023-01-07T00:34:07.488Z,3.50
2023-01-07T00:37:12.309Z,2.80
2023-01-07T00:39:40.636Z,3.70
2023-01-07T00:42:26.816Z,4.10
2023-01-07T00:44:53.540Z,3.60
2023-01-07T00:49:47.134Z,4.90
2023-01-07T00:52:13.867Z,4.20
2023-01-07T00:57:10.443Z,3.70
2023-01-07T00:59:37.598Z,4.30
2023-01-07T01:04:32.157Z,5.20
2023-01-07T01:06:58.812Z,4.00
2023-01-07T01:09:26.441Z,3.60
2023-01-07T01:11:53.191Z,4.20
2023-01-07T01:16:46.717Z,3.10
2023-01-07T01:21:43.074Z,4.10
2023-01-07T01:24:10.267Z,3.10
2023-01-07T01:26:37.092Z,3.10
2023-01-07T01:31:31.694Z,3.10
2023-01-07T01:33:59.822Z,3.50
2023-01-07T01:36:26.611Z,3.50
2023-01-07T01:38:55.414Z,3.20
2023-01-07T01:41:22.229Z,3.20
2023-01-07T01:43:50.596Z,3.10
2023-01-07T01:48:52.807Z,2.50
2023-01-07T01:51:20.819Z,3.30
2023-01-07T01:53:47.614Z,3.20
2023-01-07T01:56:16.467Z,2.90
2023-01-07T01:58:48.600Z,3.40
2023-01-07T02:01:15.456Z,4.30
2023-01-07T02:03:42.812Z,4.40
2023-01-07T02:06:21.645Z,4.00
2023-01-07T02:08:48.433Z,3.90
2023-01-07T02:11:40.096Z,3.30
2023-01-07T02:14:31.906Z,3.40
2023-01-07T02:17:17.522Z,3.10
2023-01-07T02:20:03.869Z,3.30
2023-01-07T02:22:30.651Z,3.60
2023-01-07T02:27:55.107Z,3.20
2023-01-07T02:30:46.876Z,2.60
2023-01-07T02:33:22.549Z,3.30
2023-01-07T02:36:00.299Z,3.80
2023-01-07T02:38:56.035Z,4.70
2023-01-07T02:41:37.467Z,3.30
2023-01-07T02:44:12.310Z,3.50
2023-01-07T02:46:45.103Z,3.10
2023-01-07T02:49:15.204Z,3.20
2023-01-07T02:51:42.317Z,3.20
2023-01-07T02:54:29.298Z,3.10
2023-01-07T02:57:24.524Z,2.60
2023-01-07T03:00:03.348Z,3.40
2023-01-07T03:02:42.497Z,4.00
2023-01-07T03:05:17.408Z,4.10
2023-01-07T03:10:14.330Z,3.60
2023-01-07T03:12:45.866Z,4.20
2023-01-07T03:15:20.755Z,4.90
2023-01-07T03:17:58.148Z,4.20
2023-01-07T03:20:25.327Z,4.50
2023-01-07T03:25:19.906Z,3.70
2023-01-07T03:27:46.485Z,4.00
2023-01-07T03:30:13.976Z,3.80
2023-01-07T03:33:00.789Z,4.20
2023-01-07T03:35:27.994Z,4.90
2023-01-07T03:37:54.508Z,4.30
2023-01-07T03:40:21.032Z,5.70
2023-01-07T03:42:48.774Z,5.80
2023-01-07T03:45:23.294Z,3.80
2023-01-07T03:47:52.903Z,3.90
2023-01-07T03:50:19.948Z,3.60
2023-01-07T03:52:50.484Z,3.80
2023-01-07T03:55:18.387Z,2.90
2023-01-07T03:57:45.460Z,3.00
2023-01-07T04:00:12.495Z,3.80
2023-01-07T04:02:43.681Z,3.20
2023-01-07T04:05:17.320Z,3.30
2023-01-07T04:10:10.700Z,3.10
2023-01-07T04:15:04.397Z,3.40
2023-01-07T04:17:33.094Z,4.00
2023-01-07T04:20:00.430Z,4.70
2023-01-07T04:22:27.055Z,3.50
2023-01-07T04:24:57.438Z,3.10
2023-01-07T04:27:24.200Z,4.00
2023-01-07T04:29:51.585Z,3.30
2023-01-07T04:32:18.191Z,3.30
2023-01-07T04:34:44.792Z,3.40
2023-01-07T04:37:11.734Z,3.60
2023-01-07T04:39:38.407Z,3.40
2023-01-07T04:42:05.419Z,3.70
2023-01-07T04:44:32.488Z,3.40
2023-01-07T04:46:59.005Z,3.70
2023-01-07T04:49:25.773Z,4.00
2023-01-07T04:51:52.662Z,3.70
2023-01-07T04:54:19.273Z,3.70
2023-01-07T04:56:45.852Z,4.10
2023-01-07T04:59:12.918Z,4.50
2023-01-07T05:01:40.201Z,4.60
2023-01-07T05:04:07.648Z,4.00
2023-01-07T05:06:36.332Z,3.80
2023-01-07T05:09:03.035Z,4.00
2023-01-07T05:11:30.106Z,4.50
2023-01-07T05:14:01.370Z,3.90
2023-01-07T05:16:29.912Z,4.70
2023-01-07T05:18:59.219Z,5.70
2023-01-07T05:21:26.419Z,4.90
2023-01-07T05:23:53.256Z,4.80
2023-01-07T05:26:21.799Z,4.30
2023-01-07T05:28:49.015Z,4.40
2023-01-07T05:31:15.929Z,4.40
2023-01-07T05:33:43.389Z,5.20
2023-01-07T05:36:10.688Z,4.90
2023-01-07T05:41:04.426Z,5.20
2023-01-07T05:43:31.559Z,4.00
2023-01-07T05:45:58.576Z,5.00
2023-01-07T05:48:25.175Z,5.30
2023-01-07T05:50:51.738Z,5.80
2023-01-07T05:53:18.676Z,5.30
2023-01-07T05:58:12.081Z,10.70
2023-01-07T06:03:05.450Z,5.90
2023-01-07T06:05:36.034Z,4.60
2023-01-07T06:08:02.754Z,5.80
2023-01-07T06:10:29.611Z,7.00
2023-01-07T06:15:22.699Z,6.70
2023-01-07T06:17:49.367Z,5.60
2023-01-07T06:20:15.944Z,5.00
2023-01-07T06:22:42.625Z,8.80
2023-01-07T06:25:10.904Z,7.50
2023-01-07T06:27:37.755Z,8.00
2023-01-07T06:32:31.528Z,6.30
2023-01-07T06:34:58.113Z,8.00
2023-01-07T06:37:24.649Z,6.50
2023-01-07T06:39:51.350Z,6.40
2023-01-07T06:42:17.895Z,6.30
2023-01-07T06:44:44.575Z,7.60
2023-01-07T06:47:11.408Z,16.80
2023-01-07T06:49:38.260Z,9.60
2023-01-07T06:52:04.867Z,8.40
2023-01-07T06:54:31.538Z,9.30
2023-01-07T06:56:58.166Z,7.60
2023-01-07T06:59:24.894Z,6.60
2023-01-07T07:01:51.632Z,28.80
2023-01-07T07:04:18.416Z,20.40
2023-01-07T07:06:44.981Z,21.40
2023-01-07T07:09:11.569Z,11.20
2023-01-07T07:11:40.476Z,23.40
2023-01-07T07:14:07.069Z,11.80
2023-01-07T07:16:34.333Z,8.80
2023-01-07T07:19:00.980Z,10.00
2023-01-07T07:21:27.623Z,8.00
2023-01-07T07:23:54.198Z,10.50
2023-01-07T07:26:20.740Z,19.50
2023-01-07T07:28:47.215Z,25.50
2023-01-07T07:31:13.727Z,12.10
2023-01-07T07:33:40.347Z,9.20
2023-01-07T07:36:07.085Z,8.10
2023-01-07T07:38:33.795Z,11.80
2023-01-07T07:41:02.068Z,12.50
2023-01-07T07:43:28.698Z,10.00
2023-01-07T07:45:55.295Z,10.20
2023-01-07T07:48:22.262Z,8.70
2023-01-07T07:53:18.935Z,9.50
2023-01-07T07:55:45.942Z,13.20
2023-01-07T07:58:12.495Z,8.60
2023-01-07T08:00:39.013Z,7.80
2023-01-07T08:03:05.762Z,9.90
2023-01-07T08:05:32.517Z,6.30
2023-01-07T08:07:59.220Z,9.00
2023-01-07T08:10:25.987Z,8.20
2023-01-07T08:12:53.421Z,9.70
2023-01-07T08:15:20.963Z,8.30
2023-01-07T08:17:47.514Z,10.00
2023-01-07T08:20:14.129Z,9.40
2023-01-07T08:22:42.768Z,8.50
2023-01-07T08:25:11.968Z,7.30
2023-01-07T08:27:38.488Z,8.60
2023-01-07T08:30:05.407Z,8.00
2023-01-07T08:32:32.336Z,8.40
2023-01-07T08:34:58.937Z,13.00
2023-01-07T08:37:25.489Z,23.40
2023-01-07T08:39:51.971Z,22.30
2023-01-07T08:42:18.454Z,12.80
2023-01-07T08:44:44.955Z,14.60
2023-01-07T08:47:12.267Z,15.80
2023-01-07T08:52:05.546Z,39.90
2023-01-07T08:54:32.051Z,20.70
2023-01-07T08:56:58.613Z,17.30
2023-01-07T08:59:25.109Z,18.00
2023-01-07T09:01:51.841Z,15.60
2023-01-07T09:04:19.243Z,9.80
2023-01-07T09:06:46.539Z,12.50
2023-01-07T09:09:15.898Z,33.00
2023-01-07T09:11:42.919Z,13.90
2023-01-07T09:14:09.564Z,10.50
2023-01-07T09:16:36.133Z,8.60
2023-01-07T09:19:02.730Z,9.90
2023-01-07T09:21:29.447Z,12.00
2023-01-07T09:23:55.963Z,10.30
2023-01-07T09:26:22.554Z,15.20
2023-01-07T09:28:49.097Z,22.20
2023-01-07T09:31:15.633Z,13.70
2023-01-07T09:33:42.560Z,11.00
2023-01-07T09:36:09.179Z,10.00
2023-01-07T09:38:36.332Z,11.10
2023-01-07T09:44:01.052Z,9.20
2023-01-07T09:46:28.830Z,9.00
2023-01-07T09:48:57.333Z,9.80
2023-01-07T09:51:25.490Z,12.60
2023-01-07T09:53:53.681Z,9.30
2023-01-07T09:56:23.458Z,7.00
2023-01-07T09:58:49.947Z,11.90
2023-01-07T10:01:20.051Z,13.50
2023-01-07T10:03:49.619Z,12.10
2023-01-07T10:07:13.614Z,8.10
2023-01-07T10:09:47.004Z,9.90
2023-01-07T10:12:22.767Z,11.30
2023-01-07T10:14:59.477Z,13.10
2023-01-07T10:17:37.879Z,11.70
2023-01-07T10:20:26.091Z,21.60
2023-01-07T10:25:35.539Z,25.80
2023-01-07T10:28:06.959Z,17.10
2023-01-07T10:30:40.965Z,11.70
2023-01-07T10:33:28.362Z,13.40
2023-01-07T10:36:30.610Z,25.10
2023-01-07T10:39:00.259Z,12.50
2023-01-07T10:41:56.022Z,11.00
2023-01-07T10:44:25.633Z,12.60
2023-01-07T10:47:16.033Z,13.50
2023-01-07T10:49:50.364Z,9.90
2023-01-07T10:52:26.243Z,9.80
2023-01-07T10:55:29.719Z,8.10
2023-01-07T10:57:56.476Z,10.30
2023-01-07T11:00:26.565Z,9.40
2023-01-07T11:02:56.177Z,9.50
2023-01-07T11:05:25.370Z,7.80
2023-01-07T11:07:53.887Z,9.20
2023-01-07T11:10:22.303Z,13.50
2023-01-07T11:12:49.752Z,10.20
2023-01-07T11:15:35.004Z,9.30
2023-01-07T11:18:06.623Z,11.10
2023-01-07T11:20:53.223Z,10.90
2023-01-07T11:23:35.693Z,12.10
2023-01-07T11:26:06.968Z,35.10
2023-01-07T11:28:34.073Z,70.70
2023-01-07T11:34:01.474Z,16.60
2023-01-07T11:36:49.807Z,22.60
2023-01-07T11:39:24.117Z,13.50
2023-01-07T11:41:58.945Z,14.50
2023-01-07T11:44:25.905Z,10.20
2023-01-07T11:46:52.610Z,10.30
2023-01-07T11:51:51.787Z,14.80
2023-01-07T11:54:21.943Z,33.30
2023-01-07T11:56:48.599Z,16.00
2023-01-07T11:59:25.188Z,13.90
2023-01-07T12:01:53.695Z,61.80
2023-01-07T12:04:23.045Z,19.80
2023-01-07T12:06:51.460Z,11.70
2023-01-07T12:09:30.836Z,21.10
2023-01-07T12:12:31.036Z,18.00
2023-01-07T12:15:23.250Z,14.40
2023-01-07T12:18:06.960Z,14.90
2023-01-07T12:21:00.872Z,17.90
2023-01-07T12:23:36.543Z,12.60
2023-01-07T12:26:05.924Z,12.60
2023-01-07T12:28:44.679Z,13.00
2023-01-07T12:31:29.883Z,10.40
2023-01-07T12:34:08.155Z,8.60
2023-01-07T12:36:36.048Z,7.40
2023-01-07T12:39:07.083Z,10.10
2023-01-07T12:41:40.293Z,16.10
2023-01-07T12:44:20.569Z,12.60
2023-01-07T12:47:31.180Z,14.90
2023-01-07T12:49:59.344Z,8.80
2023-01-07T12:52:43.480Z,32.50
2023-01-07T12:55:19.956Z,22.40
2023-01-07T12:58:27.739Z,26.60
2023-01-07T13:00:55.580Z,27.90
2023-01-07T13:03:24.673Z,49.80
2023-01-07T13:05:56.213Z,21.50
2023-01-07T13:08:31.972Z,13.20
2023-01-07T13:11:12.134Z,15.70
2023-01-07T13:13:41.267Z,12.90
2023-01-07T13:16:11.260Z,25.60
2023-01-07T13:18:38.287Z,20.00
2023-01-07T13:21:14.665Z,11.90
2023-01-07T13:24:11.506Z,9.20
2023-01-07T13:27:14.951Z,11.10
2023-01-07T13:29:50.389Z,15.70
2023-01-07T13:32:38.398Z,16.30
2023-01-07T13:35:14.855Z,25.90
2023-01-07T13:37:44.442Z,15.60
2023-01-07T13:40:23.077Z,17.20
2023-01-07T13:43:21.195Z,14.30
2023-01-07T13:46:07.119Z,14.10
2023-01-07T13:48:37.707Z,17.80
2023-01-07T13:51:05.257Z,14.70
2023-01-07T13:53:53.379Z,12.80
2023-01-07T13:56:19.961Z,12.70
2023-01-07T13:58:54.817Z,15.70
2023-01-07T14:01:24.761Z,13.30
2023-01-07T14:04:02.611Z,9.60
2023-01-07T14:06:30.328Z,10.00
2023-01-07T14:09:06.803Z,21.40
2023-01-07T14:11:33.341Z,14.80
2023-01-07T14:14:39.708Z,26.70
2023-01-07T14:17:28.143Z,23.30
2023-01-07T14:20:07.813Z,18.60
2023-01-07T14:22:53.372Z,60.80
2023-01-07T14:25:41.719Z,23.80
2023-01-07T14:28:42.526Z,22.80
2023-01-07T14:31:25.378Z,15.30
2023-01-07T14:33:54.773Z,15.20
2023-01-07T14:36:21.236Z,21.70
2023-01-07T14:38:57.873Z,13.70
2023-01-07T14:41:24.664Z,14.60
2023-01-07T14:46:26.043Z,10.90
2023-01-07T14:49:01.585Z,22.80
2023-01-07T14:51:40.408Z,19.00
2023-01-07T14:54:27.633Z,23.90
2023-01-07T14:57:09.673Z,25.40
2023-01-07T15:00:01.596Z,34.50
2023-01-07T15:03:05.833Z,23.70
2023-01-07T15:05:50.876Z,14.20
2023-01-07T15:08:37.355Z,17.10
2023-01-07T15:11:23.217Z,47.30
2023-01-07T15:14:14.535Z,14.10
2023-01-07T15:16:41.108Z,19.50
2023-01-07T15:21:48.924Z,18.60
2023-01-07T15:27:06.896Z,24.00
2023-01-07T15:30:07.800Z,18.40
2023-01-07T15:32:50.085Z,19.30
2023-01-07T15:35:22.094Z,18.70
2023-01-07T15:37:49.730Z,17.10
2023-01-07T15:40:18.234Z,12.30
2023-01-07T15:42:46.209Z,18.90
2023-01-07T15:45:17.760Z,17.20
2023-01-07T15:47:44.919Z,17.10
2023-01-07T15:50:21.529Z,25.50
2023-01-07T15:53:03.770Z,13.20
2023-01-07T15:55:36.123Z,19.20
2023-01-07T15:58:07.129Z,20.20
2023-01-07T16:00:34.901Z,16.50
2023-01-07T16:03:02.543Z,15.30
2023-01-07T16:05:29.315Z,11.70
2023-01-07T16:10:32.577Z,11.20
2023-01-07T16:13:01.369Z,11.00
2023-01-07T16:15:29.314Z,14.00
2023-01-07T16:18:16.709Z,41.20
2023-01-07T16:20:51.067Z,20.70
2023-01-07T16:23:22.873Z,24.70
2023-01-07T16:25:55.816Z,17.00
2023-01-07T16:28:26.638Z,14.10
2023-01-07T16:30:53.377Z,22.50
2023-01-07T16:35:48.808Z,20.50
2023-01-07T16:38:16.639Z,15.80
2023-01-07T16:40:43.391Z,12.60
2023-01-07T16:46:28.667Z,14.50
2023-01-07T16:49:29.666Z,10.70
2023-01-07T16:52:11.151Z,11.00
2023-01-07T16:54:40.417Z,14.80
2023-01-07T16:57:10.090Z,20.20
2023-01-07T16:59:42.831Z,26.00
2023-01-07T17:02:40.660Z,23.90
2023-01-07T17:05:27.563Z,19.20
2023-01-07T17:07:57.726Z,24.50
2023-01-07T17:10:32.402Z,21.00
2023-01-07T17:13:03.131Z,19.30
2023-01-07T17:15:32.559Z,16.10
2023-01-07T17:18:11.189Z,22.70
2023-01-07T17:20:46.650Z,19.30
2023-01-07T17:23:25.529Z,19.50
2023-01-07T17:26:10.677Z,17.80
2023-01-07T17:28:43.644Z,12.80
2023-01-07T17:31:10.448Z,15.30
2023-01-07T17:36:04.037Z,11.60
2023-01-07T17:38:30.850Z,12.90
2023-01-07T17:43:34.495Z,13.20
2023-01-07T17:46:02.167Z,16.30
2023-01-07T17:48:29.062Z,16.80
2023-01-07T17:50:57.173Z,13.90
2023-01-07T17:53:28.578Z,12.80
2023-01-07T17:55:55.342Z,22.20
2023-01-07T18:00:55.936Z,11.40
2023-01-07T18:03:25.535Z,11.80
2023-01-07T18:05:52.498Z,11.60
2023-01-07T18:08:19.422Z,11.00
2023-01-07T18:11:05.825Z,10.40
2023-01-07T18:13:32.747Z,10.40
2023-01-07T18:15:59.617Z,9.60
2023-01-07T18:18:28.898Z,10.50
2023-01-07T18:20:56.521Z,8.50
2023-01-07T18:23:23.459Z,9.50
2023-01-07T18:25:50.312Z,9.20
2023-01-07T18:28:17.604Z,13.00
2023-01-07T18:33:11.220Z,10.80
2023-01-07T18:35:40.675Z,10.00
2023-01-07T18:38:13.881Z,11.40
2023-01-07T18:40:40.983Z,8.00
2023-01-07T18:43:07.709Z,10.30
2023-01-07T18:45:34.522Z,10.00
2023-01-07T18:50:28.034Z,7.40
2023-01-07T18:52:54.700Z,6.30
2023-01-07T18:55:21.911Z,9.80
2023-01-07T18:57:48.833Z,7.60
2023-01-07T19:00:16.111Z,8.40
2023-01-07T19:02:43.030Z,6.30
2023-01-07T19:05:09.939Z,6.60
2023-01-07T19:07:36.929Z,6.20
2023-01-07T19:10:04.920Z,9.00
2023-01-07T19:12:31.625Z,7.00
2023-01-07T19:14:58.320Z,8.80
2023-01-07T19:17:26.012Z,10.60
2023-01-07T19:19:52.743Z,8.90
2023-01-07T19:24:47.791Z,8.10
2023-01-07T19:29:42.250Z,7.50
2023-01-07T19:32:09.104Z,8.40
2023-01-07T19:37:02.591Z,6.90
2023-01-07T19:41:56.028Z,7.20
2023-01-07T19:46:49.499Z,6.50
2023-01-07T19:49:16.358Z,6.20
2023-01-07T19:51:43.273Z,7.00
2023-01-07T19:54:15.933Z,8.70
2023-01-07T19:56:43.693Z,6.40
2023-01-07T19:59:11.081Z,7.50
2023-01-07T20:01:39.125Z,6.40
2023-01-07T20:04:07.165Z,7.90
2023-01-07T20:06:35.557Z,5.40
2023-01-07T20:09:08.462Z,6.50
2023-01-07T20:11:35.333Z,5.80
2023-01-07T20:14:02.295Z,7.10
2023-01-07T20:16:29.025Z,7.00
2023-01-07T20:18:56.046Z,6.40
2023-01-07T20:21:25.414Z,7.90
2023-01-07T20:23:52.390Z,7.80
2023-01-07T20:26:30.084Z,7.90
2023-01-07T20:28:57.167Z,7.20
2023-01-07T20:31:24.611Z,7.60
2023-01-07T20:33:51.742Z,6.30
2023-01-07T20:36:20.107Z,6.70
2023-01-07T20:38:47.020Z,7.00
2023-01-07T20:41:19.094Z,7.30
2023-01-07T20:43:50.462Z,8.00
2023-01-07T20:46:17.310Z,7.70
2023-01-07T20:51:12.085Z,6.70
2023-01-07T20:53:38.890Z,8.40
2023-01-07T20:58:33.725Z,7.10
2023-01-07T21:01:09.225Z,8.00
2023-01-07T21:03:36.544Z,8.20
2023-01-07T21:06:03.379Z,8.20
2023-01-07T21:10:57.268Z,8.00
2023-01-07T21:13:24.052Z,7.40
2023-01-07T21:18:17.862Z,7.90
2023-01-07T21:20:44.981Z,8.80
2023-01-07T21:23:11.722Z,8.40
2023-01-07T21:28:06.625Z,8.20
2023-01-07T21:30:33.809Z,7.90
2023-01-07T21:33:00.601Z,8.10
2023-01-07T21:37:54.760Z,9.60
2023-01-07T21:40:22.065Z,9.50
2023-01-07T21:42:49.014Z,9.50
2023-01-07T21:45:15.858Z,7.40
2023-01-07T21:50:09.431Z,8.20
2023-01-07T21:55:03.142Z,7.20
2023-01-07T21:57:29.887Z,7.20
2023-01-07T22:02:23.209Z,7.80
2023-01-07T22:07:17.787Z,8.10
2023-01-07T22:09:44.548Z,8.20
2023-01-07T22:14:38.766Z,8.30
2023-01-07T22:17:05.855Z,8.60
2023-01-07T22:19:32.650Z,9.60
2023-01-07T22:24:26.037Z,8.60
2023-01-07T22:29:20.533Z,8.30
2023-01-07T22:34:16.475Z,9.30
2023-01-07T22:36:49.252Z,9.40
2023-01-07T22:39:18.740Z,8.90
2023-01-07T22:41:45.471Z,9.40
2023-01-07T22:44:14.683Z,8.50
2023-01-07T22:46:41.878Z,10.30
2023-01-07T22:49:08.566Z,10.50
2023-01-07T22:51:38.828Z,9.20
2023-01-07T22:54:05.748Z,9.40
2023-01-07T22:58:59.206Z,7.60
2023-01-07T23:01:25.940Z,8.30
2023-01-07T23:06:19.513Z,7.80
2023-01-07T23:08:46.214Z,8.30
2023-01-07T23:13:59.928Z,7.10
2023-01-07T23:16:26.870Z,7.80
2023-01-07T23:18:53.694Z,7.90
2023-01-07T23:23:47.066Z,6.60
2023-01-07T23:26:14.571Z,7.90
2023-01-07T23:28:41.427Z,6.50
2023-01-07T23:31:10.125Z,7.20
2023-01-07T23:33:36.897Z,7.40
2023-01-07T23:38:34.225Z,7.80
2023-01-07T23:41:05.862Z,6.40
2023-01-07T23:43:32.569Z,7.50
2023-01-07T23:46:00.059Z,8.90
2023-01-07T23:48:27.537Z,8.80
2023-01-07T23:50:54.632Z,7.90
2023-01-07T23:53:21.531Z,9.50
2023-01-07T23:58:18.915Z,9.10
